sensor_id;sensor_type;location;lat;lon;timestamp;pressure;altitude;pressure_sealevel;temperature;humidity
69318;BME280;56457;52.190;4.440;2022-10-16T00:00:56;100918.22;;;14.31;100.00
69318;BME280;56457;52.190;4.440;2022-10-16T00:01:56;100919.09;;;14.31;100.00
69318;BME280;56457;52.190;4.440;2022-10-16T00:02:56;100915.59;;;14.31;100.00
69318;BME280;56457;52.190;4.440;2022-10-16T00:03:57;100903.25;;;14.31;100.00
69318;BME280;56457;52.190;4.440;2022-10-16T00:04:58;100920.06;;;14.28;100.00
69318;BME280;56457;52.190;4.440;2022-10-16T00:05:59;100918.38;;;14.24;100.00
69318;BME280;56457;52.190;4.440;2022-10-16T00:07:00;100916.56;;;14.26;100.00
69318;BME280;56457;52.190;4.440;2022-10-16T00:08:01;100909.53;;;14.25;100.00
69318;BME280;56457;52.190;4.440;2022-10-16T00:09:02;100917.38;;;14.30;100.00
69318;BME280;56457;52.190;4.440;2022-10-16T00:10:03;100917.41;;;14.27;100.00
69318;BME280;56457;52.190;4.440;2022-10-16T00:11:14;100913.81;;;14.31;100.00
69318;BME280;56457;52.190;4.440;2022-10-16T00:12:14;100907.63;;;14.32;100.00
69318;BME280;56457;52.190;4.440;2022-10-16T00:13:15;100914.78;;;14.27;100.00
69318;BME280;56457;52.190;4.440;2022-10-16T00:14:17;100919.16;;;14.28;100.00
69318;BME280;56457;52.190;4.440;2022-10-16T00:15:17;100917.50;;;14.24;100.00
69318;BME280;56457;52.190;4.440;2022-10-16T00:16:18;100929.78;;;14.25;100.00
69318;BME280;56457;52.190;4.440;2022-10-16T00:17:18;100920.09;;;14.25;100.00
69318;BME280;56457;52.190;4.440;2022-10-16T00:18:18;100913.00;;;14.27;100.00
69318;BME280;56457;52.190;4.440;2022-10-16T00:19:19;100914.78;;;14.27;100.00
69318;BME280;56457;52.190;4.440;2022-10-16T00:20:19;100905.94;;;14.28;100.00
69318;BME280;56457;52.190;4.440;2022-10-16T00:21:21;100913.13;;;14.23;100.00
69318;BME280;56457;52.190;4.440;2022-10-16T00:22:21;100913.91;;;14.26;100.00
69318;BME280;56457;52.190;4.440;2022-10-16T00:23:22;100921.88;;;14.25;100.00
69318;BME280;56457;52.190;4.440;2022-10-16T00:24:22;100907.84;;;14.23;100.00
69318;BME280;56457;52.190;4.440;2022-10-16T00:25:22;100920.22;;;14.19;100.00
69318;BME280;56457;52.190;4.440;2022-10-16T00:26:23;100908.72;;;14.22;100.00
69318;BME280;56457;52.190;4.440;2022-10-16T00:27:23;100907.78;;;14.26;100.00
69318;BME280;56457;52.190;4.440;2022-10-16T00:28:24;100907.84;;;14.23;100.00
69318;BME280;56457;52.190;4.440;2022-10-16T00:29:24;100904.25;;;14.25;100.00
69318;BME280;56457;52.190;4.440;2022-10-16T00:30:25;100903.34;;;14.26;100.00
69318;BME280;56457;52.190;4.440;2022-10-16T00:31:27;100898.13;;;14.25;100.00
69318;BME280;56457;52.190;4.440;2022-10-16T00:32:28;100901.56;;;14.28;100.00
69318;BME280;56457;52.190;4.440;2022-10-16T00:33:28;100899.81;;;14.29;100.00
69318;BME280;56457;52.190;4.440;2022-10-16T00:34:28;100890.16;;;14.26;100.00
69318;BME280;56457;52.190;4.440;2022-10-16T00:35:30;100898.09;;;14.26;100.00
69318;BME280;56457;52.190;4.440;2022-10-16T00:36:30;100895.38;;;14.30;100.00
69318;BME280;56457;52.190;4.440;2022-10-16T00:37:32;100907.84;;;14.23;100.00
69318;BME280;56457;52.190;4.440;2022-10-16T00:38:32;100906.13;;;14.20;100.00
69318;BME280;56457;52.190;4.440;2022-10-16T00:39:32;100902.53;;;14.24;100.00
69318;BME280;56457;52.190;4.440;2022-10-16T00:40:33;100902.56;;;14.23;100.00
69318;BME280;56457;52.190;4.440;2022-10-16T00:41:33;100904.41;;;14.19;100.00
69318;BME280;56457;52.190;4.440;2022-10-16T00:42:34;100906.16;;;14.19;100.00
69318;BME280;56457;52.190;4.440;2022-10-16T00:43:38;100910.63;;;14.15;100.00
69318;BME280;56457;52.190;4.440;2022-10-16T00:45:43;100911.53;;;14.14;100.00
69318;BME280;56457;52.190;4.440;2022-10-16T00:46:43;100901.84;;;14.15;100.00
69318;BME280;56457;52.190;4.440;2022-10-16T00:47:44;100905.44;;;14.12;100.00
69318;BME280;56457;52.190;4.440;2022-10-16T00:48:53;100914.25;;;14.10;100.00
69318;BME280;56457;52.190;4.440;2022-10-16T00:50:04;100914.25;;;14.10;100.00
69318;BME280;56457;52.190;4.440;2022-10-16T00:51:06;100922.19;;;14.10;100.00
69318;BME280;56457;52.190;4.440;2022-10-16T00:52:07;100913.44;;;14.08;100.00
69318;BME280;56457;52.190;4.440;2022-10-16T00:53:07;100920.50;;;14.07;100.00
69318;BME280;56457;52.190;4.440;2022-10-16T00:54:09;100917.03;;;14.05;100.00
69318;BME280;56457;52.190;4.440;2022-10-16T00:55:10;100912.56;;;14.07;100.00
69318;BME280;56457;52.190;4.440;2022-10-16T00:56:10;100921.41;;;14.06;100.00
69318;BME280;56457;52.190;4.440;2022-10-16T00:57:11;100909.13;;;14.04;100.00
69318;BME280;56457;52.190;4.440;2022-10-16T00:58:11;100924.13;;;14.01;100.00
69318;BME280;56457;52.190;4.440;2022-10-16T00:59:14;100926.75;;;14.01;100.00
69318;BME280;56457;52.190;4.440;2022-10-16T01:00:17;100921.47;;;14.01;100.00
69318;BME280;56457;52.190;4.440;2022-10-16T01:01:18;100923.28;;;13.99;100.00
69318;BME280;56457;52.190;4.440;2022-10-16T01:02:18;100924.19;;;13.98;100.00
69318;BME280;56457;52.190;4.440;2022-10-16T01:03:23;100929.53;;;13.95;100.00
69318;BME280;56457;52.190;4.440;2022-10-16T01:04:24;100924.25;;;13.95;100.00
69318;BME280;56457;52.190;4.440;2022-10-16T01:05:27;100931.31;;;13.93;100.00
69318;BME280;56457;52.190;4.440;2022-10-16T01:06:51;100927.81;;;13.93;100.00
69318;BME280;56457;52.190;4.440;2022-10-16T01:08:05;100931.31;;;13.93;100.00
69318;BME280;56457;52.190;4.440;2022-10-16T01:09:30;100933.09;;;13.93;100.00
69318;BME280;56457;52.190;4.440;2022-10-16T01:10:40;100932.22;;;13.92;100.00
69318;BME280;56457;52.190;4.440;2022-10-16T01:11:49;100925.28;;;13.88;100.00
69318;BME280;56457;52.190;4.440;2022-10-16T01:13:00;100933.22;;;13.87;100.00
69318;BME280;56457;52.190;4.440;2022-10-16T01:14:04;100931.44;;;13.87;100.00
69318;BME280;56457;52.190;4.440;2022-10-16T01:16:21;100928.84;;;13.86;100.00
69318;BME280;56457;52.190;4.440;2022-10-16T01:17:33;100933.25;;;13.85;100.00
69318;BME280;56457;52.190;4.440;2022-10-16T01:20:50;100928.97;;;13.80;100.00
69318;BME280;56457;52.190;4.440;2022-10-16T01:21:54;100935.06;;;13.82;100.00
69318;BME280;56457;52.190;4.440;2022-10-16T01:23:04;100933.38;;;13.79;100.00
69318;BME280;56457;52.190;4.440;2022-10-16T01:28:08;100929.16;;;13.69;100.00
69318;BME280;56457;52.190;4.440;2022-10-16T01:29:16;100930.13;;;13.66;100.00
69318;BME280;56457;52.190;4.440;2022-10-16T01:30:23;100924.84;;;13.66;100.00
69318;BME280;56457;52.190;4.440;2022-10-16T01:31:27;100927.47;;;13.65;100.00
69318;BME280;56457;52.190;4.440;2022-10-16T01:33:48;100934.47;;;13.66;100.00
69318;BME280;56457;52.190;4.440;2022-10-16T01:34:52;100922.25;;;13.63;100.00
69318;BME280;56457;52.190;4.440;2022-10-16T01:35:59;100928.38;;;13.64;100.00
69318;BME280;56457;52.190;4.440;2022-10-16T01:37:04;100927.56;;;13.62;100.00
69318;BME280;56457;52.190;4.440;2022-10-16T01:38:08;100926.69;;;13.61;100.00
69318;BME280;56457;52.190;4.440;2022-10-16T01:39:10;100930.16;;;13.63;100.00
69318;BME280;56457;52.190;4.440;2022-10-16T01:40:11;100932.88;;;13.60;100.00
69318;BME280;56457;52.190;4.440;2022-10-16T01:41:32;100930.22;;;13.59;100.00
69318;BME280;56457;52.190;4.440;2022-10-16T01:42:44;100938.94;;;13.64;100.00
69318;BME280;56457;52.190;4.440;2022-10-16T01:43:55;100935.47;;;13.62;100.00
69318;BME280;56457;52.190;4.440;2022-10-16T01:44:57;100944.28;;;13.59;100.00
69318;BME280;56457;52.190;4.440;2022-10-16T01:45:59;100941.59;;;13.62;100.00
69318;BME280;56457;52.190;4.440;2022-10-16T01:47:00;100940.53;;;13.71;100.00
69318;BME280;56457;52.190;4.440;2022-10-16T01:48:01;100935.38;;;13.65;100.00
69318;BME280;56457;52.190;4.440;2022-10-16T01:49:04;100942.47;;;13.63;100.00
69318;BME280;56457;52.190;4.440;2022-10-16T01:50:06;100939.84;;;13.63;100.00
69318;BME280;56457;52.190;4.440;2022-10-16T01:51:17;100943.28;;;13.65;100.00
69318;BME280;56457;52.190;4.440;2022-10-16T01:52:19;100944.25;;;13.62;100.00
69318;BME280;56457;52.190;4.440;2022-10-16T01:53:21;100940.69;;;13.63;100.00
69318;BME280;56457;52.190;4.440;2022-10-16T01:54:22;100939.75;;;13.66;100.00
69318;BME280;56457;52.190;4.440;2022-10-16T01:55:29;100942.34;;;13.69;100.00
69318;BME280;56457;52.190;4.440;2022-10-16T01:56:31;100945.94;;;13.66;100.00
69318;BME280;56457;52.190;4.440;2022-10-16T01:57:33;100949.50;;;13.62;100.00
69318;BME280;56457;52.190;4.440;2022-10-16T01:58:35;100948.56;;;13.66;100.00
69318;BME280;56457;52.190;4.440;2022-10-16T01:59:40;100949.47;;;13.64;100.00
69318;BME280;56457;52.190;4.440;2022-10-16T02:00:43;100944.25;;;13.62;100.00
69318;BME280;56457;52.190;4.440;2022-10-16T02:01:45;100954.78;;;13.62;100.00
69318;BME280;56457;52.190;4.440;2022-10-16T02:02:48;100956.50;;;13.63;100.00
69318;BME280;56457;52.190;4.440;2022-10-16T02:03:50;100952.06;;;13.67;100.00
69318;BME280;56457;52.190;4.440;2022-10-16T02:05:02;100951.13;;;13.69;100.00
69318;BME280;56457;52.190;4.440;2022-10-16T02:06:04;100956.47;;;13.65;100.00
69318;BME280;56457;52.190;4.440;2022-10-16T02:07:05;100951.16;;;13.68;100.00
69318;BME280;56457;52.190;4.440;2022-10-16T02:08:06;100955.66;;;13.63;100.00
69318;BME280;56457;52.190;4.440;2022-10-16T02:09:07;100946.00;;;13.62;100.00
69318;BME280;56457;52.190;4.440;2022-10-16T02:10:07;100958.31;;;13.61;100.00
69318;BME280;56457;52.190;4.440;2022-10-16T02:11:08;100951.31;;;13.59;100.00
69318;BME280;56457;52.190;4.440;2022-10-16T02:12:14;100962.75;;;13.58;100.00
69318;BME280;56457;52.190;4.440;2022-10-16T02:13:17;100948.69;;;13.60;100.00
69318;BME280;56457;52.190;4.440;2022-10-16T02:14:19;100952.25;;;13.56;100.00
69318;BME280;56457;52.190;4.440;2022-10-16T02:15:20;100956.66;;;13.56;100.00
69318;BME280;56457;52.190;4.440;2022-10-16T02:16:20;100958.44;;;13.55;100.00
69318;BME280;56457;52.190;4.440;2022-10-16T02:17:21;100954.84;;;13.58;100.00
69318;BME280;56457;52.190;4.440;2022-10-16T02:18:21;100952.28;;;13.55;100.00
69318;BME280;56457;52.190;4.440;2022-10-16T02:19:22;100958.41;;;13.57;100.00
69318;BME280;56457;52.190;4.440;2022-10-16T02:20:24;100958.44;;;13.54;100.00
69318;BME280;56457;52.190;4.440;2022-10-16T02:21:26;100969.81;;;13.57;100.00
69318;BME280;56457;52.190;4.440;2022-10-16T02:22:33;100966.22;;;13.61;100.00
69318;BME280;56457;52.190;4.440;2022-10-16T02:23:47;100959.25;;;13.57;100.00
69318;BME280;56457;52.190;4.440;2022-10-16T02:24:59;100961.97;;;13.54;100.00
69318;BME280;56457;52.190;4.440;2022-10-16T02:26:03;100962.03;;;13.50;100.00
69318;BME280;56457;52.190;4.440;2022-10-16T02:28:24;100961.19;;;13.49;100.00
69318;BME280;56457;52.190;4.440;2022-10-16T02:29:27;100962.94;;;13.49;100.00
69318;BME280;56457;52.190;4.440;2022-10-16T02:31:31;100963.06;;;13.42;100.00
69318;BME280;56457;52.190;4.440;2022-10-16T02:32:35;100954.34;;;13.37;100.00
69318;BME280;56457;52.190;4.440;2022-10-16T02:33:37;100967.50;;;13.39;100.00
69318;BME280;56457;52.190;4.440;2022-10-16T02:34:40;100960.53;;;13.35;100.00
69318;BME280;56457;52.190;4.440;2022-10-16T02:35:41;100970.19;;;13.34;100.00
69318;BME280;56457;52.190;4.440;2022-10-16T02:36:42;100968.47;;;13.33;100.00
69318;BME280;56457;52.190;4.440;2022-10-16T02:37:43;100972.94;;;13.30;100.00
69318;BME280;56457;52.190;4.440;2022-10-16T02:38:44;100975.53;;;13.31;100.00
69318;BME280;56457;52.190;4.440;2022-10-16T02:39:46;100975.59;;;13.27;100.00
69318;BME280;56457;52.190;4.440;2022-10-16T02:40:46;100979.09;;;13.27;100.00
69318;BME280;56457;52.190;4.440;2022-10-16T02:41:47;100977.38;;;13.26;100.00
69318;BME280;56457;52.190;4.440;2022-10-16T02:42:49;100979.19;;;13.23;100.00
69318;BME280;56457;52.190;4.440;2022-10-16T02:43:50;100986.22;;;13.22;100.00
69318;BME280;56457;52.190;4.440;2022-10-16T02:44:50;100987.09;;;13.23;100.00
69318;BME280;56457;52.190;4.440;2022-10-16T02:45:51;100987.91;;;13.26;100.00
69318;BME280;56457;52.190;4.440;2022-10-16T02:46:51;100987.03;;;13.26;100.00
69318;BME280;56457;52.190;4.440;2022-10-16T02:47:52;100995.78;;;13.28;100.00
69318;BME280;56457;52.190;4.440;2022-10-16T02:48:52;100986.22;;;13.22;100.00
69318;BME280;56457;52.190;4.440;2022-10-16T02:49:52;100993.25;;;13.23;100.00
69318;BME280;56457;52.190;4.440;2022-10-16T02:50:53;100987.91;;;13.26;100.00
69318;BME280;56457;52.190;4.440;2022-10-16T02:51:53;100991.44;;;13.25;100.00
69318;BME280;56457;52.190;4.440;2022-10-16T02:52:53;100982.72;;;13.23;100.00
69318;BME280;56457;52.190;4.440;2022-10-16T02:53:54;100996.63;;;13.31;100.00
69318;BME280;56457;52.190;4.440;2022-10-16T02:54:55;100991.38;;;13.28;100.00
69318;BME280;56457;52.190;4.440;2022-10-16T02:55:55;100994.06;;;13.27;100.00
69318;BME280;56457;52.190;4.440;2022-10-16T02:56:55;100987.91;;;13.26;100.00
69318;BME280;56457;52.190;4.440;2022-10-16T02:57:56;100993.19;;;13.26;100.00
69318;BME280;56457;52.190;4.440;2022-10-16T02:58:56;100992.31;;;13.26;100.00
69318;BME280;56457;52.190;4.440;2022-10-16T02:59:57;100984.44;;;13.24;100.00
69318;BME280;56457;52.190;4.440;2022-10-16T03:00:57;100990.63;;;13.23;100.00
69318;BME280;56457;52.190;4.440;2022-10-16T03:01:58;100980.94;;;13.24;100.00
69318;BME280;56457;52.190;4.440;2022-10-16T03:02:58;100981.78;;;13.26;100.00
69318;BME280;56457;52.190;4.440;2022-10-16T03:03:59;100979.19;;;13.24;100.00
69318;BME280;56457;52.190;4.440;2022-10-16T03:04:59;100982.72;;;13.20;100.00
69318;BME280;56457;52.190;4.440;2022-10-16T03:06:00;100985.34;;;13.23;100.00
69318;BME280;56457;52.190;4.440;2022-10-16T03:07:00;100981.81;;;13.24;100.00
69318;BME280;56457;52.190;4.440;2022-10-16T03:08:00;100988.81;;;13.25;100.00
69318;BME280;56457;52.190;4.440;2022-10-16T03:09:01;100986.25;;;13.19;100.00
69318;BME280;56457;52.190;4.440;2022-10-16T03:10:02;100997.66;;;13.21;100.00
69318;BME280;56457;52.190;4.440;2022-10-16T03:11:02;100991.53;;;13.16;100.00
69318;BME280;56457;52.190;4.440;2022-10-16T03:12:02;100989.78;;;13.18;100.00
69318;BME280;56457;52.190;4.440;2022-10-16T03:13:03;100985.31;;;13.25;100.00
69318;BME280;56457;52.190;4.440;2022-10-16T03:14:03;100994.16;;;13.20;100.00
69318;BME280;56457;52.190;4.440;2022-10-16T03:15:04;100983.66;;;13.17;100.00
69318;BME280;56457;52.190;4.440;2022-10-16T03:16:04;100982.78;;;13.17;100.00
69318;BME280;56457;52.190;4.440;2022-10-16T03:17:05;100996.81;;;13.17;100.00
69318;BME280;56457;52.190;4.440;2022-10-16T03:18:05;100994.16;;;13.20;100.00
69318;BME280;56457;52.190;4.440;2022-10-16T03:19:06;100988.00;;;13.18;100.00
69318;BME280;56457;52.190;4.440;2022-10-16T03:20:07;100985.41;;;13.17;100.00
69318;BME280;56457;52.190;4.440;2022-10-16T03:21:07;100983.63;;;13.16;100.00
69318;BME280;56457;52.190;4.440;2022-10-16T03:22:08;100988.91;;;13.17;100.00
69318;BME280;56457;52.190;4.440;2022-10-16T03:23:08;100995.16;;;13.12;100.00
69318;BME280;56457;52.190;4.440;2022-10-16T03:24:09;100999.50;;;13.13;100.00
69318;BME280;56457;52.190;4.440;2022-10-16T03:25:09;100995.03;;;13.18;100.00
69318;BME280;56457;52.190;4.440;2022-10-16T03:26:10;100998.59;;;13.17;100.00
69318;BME280;56457;52.190;4.440;2022-10-16T03:27:10;101003.81;;;13.18;100.00
69318;BME280;56457;52.190;4.440;2022-10-16T03:28:10;101015.22;;;13.19;100.00
69318;BME280;56457;52.190;4.440;2022-10-16T03:29:11;101007.34;;;13.16;100.00
69318;BME280;56457;52.190;4.440;2022-10-16T03:30:12;101017.94;;;13.13;100.00
69318;BME280;56457;52.190;4.440;2022-10-16T03:31:12;101014.44;;;13.12;100.00
69318;BME280;56457;52.190;4.440;2022-10-16T03:32:12;101014.38;;;13.17;100.00
69318;BME280;56457;52.190;4.440;2022-10-16T03:33:13;101005.59;;;13.18;100.00
69318;BME280;56457;52.190;4.440;2022-10-16T03:34:13;101012.59;;;13.19;100.00
69318;BME280;56457;52.190;4.440;2022-10-16T03:35:14;101013.47;;;13.19;100.00
69318;BME280;56457;52.190;4.440;2022-10-16T03:36:14;101015.22;;;13.19;100.00
69318;BME280;56457;52.190;4.440;2022-10-16T03:37:14;101017.81;;;13.22;100.00
69318;BME280;56457;52.190;4.440;2022-10-16T03:38:15;101013.41;;;13.26;100.00
69318;BME280;56457;52.190;4.440;2022-10-16T03:39:15;101011.56;;;13.31;100.00
69318;BME280;56457;52.190;4.440;2022-10-16T03:40:16;101011.53;;;13.32;100.00
69318;BME280;56457;52.190;4.440;2022-10-16T03:41:16;101015.94;;;13.32;100.00
69318;BME280;56457;52.190;4.440;2022-10-16T03:42:16;101009.78;;;13.31;100.00
69318;BME280;56457;52.190;4.440;2022-10-16T03:43:17;101012.44;;;13.31;100.00
69318;BME280;56457;52.190;4.440;2022-10-16T03:44:17;101004.47;;;13.36;100.00
69318;BME280;56457;52.190;4.440;2022-10-16T03:45:17;101013.16;;;13.39;100.00
69318;BME280;56457;52.190;4.440;2022-10-16T03:46:18;101022.03;;;13.35;100.00
69318;BME280;56457;52.190;4.440;2022-10-16T03:47:18;101014.94;;;13.39;100.00
69318;BME280;56457;52.190;4.440;2022-10-16T03:48:21;101006.19;;;13.37;100.00
69318;BME280;56457;52.190;4.440;2022-10-16T03:49:22;101011.38;;;13.40;100.00
69318;BME280;56457;52.190;4.440;2022-10-16T03:50:22;101021.91;;;13.41;100.00
69318;BME280;56457;52.190;4.440;2022-10-16T03:51:22;101020.94;;;13.47;100.00
69318;BME280;56457;52.190;4.440;2022-10-16T03:52:23;101028.00;;;13.45;100.00
69318;BME280;56457;52.190;4.440;2022-10-16T03:53:23;101023.56;;;13.47;100.00
69318;BME280;56457;52.190;4.440;2022-10-16T03:54:24;101026.19;;;13.47;100.00
69318;BME280;56457;52.190;4.440;2022-10-16T03:55:24;101019.16;;;13.49;100.00
69318;BME280;56457;52.190;4.440;2022-10-16T03:56:24;101022.69;;;13.48;100.00
69318;BME280;56457;52.190;4.440;2022-10-16T03:57:25;101032.31;;;13.51;100.00
69318;BME280;56457;52.190;4.440;2022-10-16T03:58:25;101026.13;;;13.52;100.00
69318;BME280;56457;52.190;4.440;2022-10-16T03:59:26;101030.56;;;13.50;100.00
69318;BME280;56457;52.190;4.440;2022-10-16T04:00:26;101036.75;;;13.49;100.00
69318;BME280;56457;52.190;4.440;2022-10-16T04:01:27;101034.91;;;13.52;100.00
69318;BME280;56457;52.190;4.440;2022-10-16T04:02:27;101038.47;;;13.50;100.00
69318;BME280;56457;52.190;4.440;2022-10-16T04:03:27;101036.75;;;13.49;100.00
69318;BME280;56457;52.190;4.440;2022-10-16T04:04:28;101041.91;;;13.53;100.00
69318;BME280;56457;52.190;4.440;2022-10-16T04:05:28;101032.16;;;13.58;100.00
69318;BME280;56457;52.190;4.440;2022-10-16T04:06:29;101037.44;;;13.58;100.00
69318;BME280;56457;52.190;4.440;2022-10-16T04:07:29;101038.38;;;13.56;100.00
69318;BME280;56457;52.190;4.440;2022-10-16T04:08:29;101033.09;;;13.56;100.00
69318;BME280;56457;52.190;4.440;2022-10-16T04:09:30;101031.41;;;13.52;100.00
69318;BME280;56457;52.190;4.440;2022-10-16T04:10:30;101043.78;;;13.48;100.00
69318;BME280;56457;52.190;4.440;2022-10-16T04:11:31;101035.06;;;13.41;100.00
69318;BME280;56457;52.190;4.440;2022-10-16T04:12:31;101040.34;;;13.41;100.00
69318;BME280;56457;52.190;4.440;2022-10-16T04:13:31;101042.16;;;13.39;100.00
69318;BME280;56457;52.190;4.440;2022-10-16T04:14:32;101049.22;;;13.37;100.00
69318;BME280;56457;52.190;4.440;2022-10-16T04:15:32;101046.59;;;13.37;100.00
69318;BME280;56457;52.190;4.440;2022-10-16T04:16:32;101055.31;;;13.39;100.00
69318;BME280;56457;52.190;4.440;2022-10-16T04:17:33;101057.16;;;13.34;100.00
69318;BME280;56457;52.190;4.440;2022-10-16T04:18:33;101058.03;;;13.36;100.00
69318;BME280;56457;52.190;4.440;2022-10-16T04:19:35;101060.59;;;13.39;100.00
69318;BME280;56457;52.190;4.440;2022-10-16T04:20:35;101055.31;;;13.39;100.00
69318;BME280;56457;52.190;4.440;2022-10-16T04:21:36;101061.56;;;13.35;100.00
69318;BME280;56457;52.190;4.440;2022-10-16T04:22:36;101058.06;;;13.33;100.00
69318;BME280;56457;52.190;4.440;2022-10-16T04:23:37;101054.56;;;13.33;100.00
69318;BME280;56457;52.190;4.440;2022-10-16T04:24:37;101054.53;;;13.34;100.00
69318;BME280;56457;52.190;4.440;2022-10-16T04:25:37;101058.03;;;13.36;100.00
69318;BME280;56457;52.190;4.440;2022-10-16T04:26:38;101060.66;;;13.36;100.00
69318;BME280;56457;52.190;4.440;2022-10-16T04:27:38;101066.72;;;13.40;100.00
69318;BME280;56457;52.190;4.440;2022-10-16T04:28:39;101075.56;;;13.37;100.00
69318;BME280;56457;52.190;4.440;2022-10-16T04:29:40;101093.97;;;13.40;100.00
69318;BME280;56457;52.190;4.440;2022-10-16T04:30:40;101075.59;;;13.34;100.00
69318;BME280;56457;52.190;4.440;2022-10-16T04:31:41;101066.00;;;13.32;100.00
69318;BME280;56457;52.190;4.440;2022-10-16T04:32:41;101077.47;;;13.29;100.00
69318;BME280;56457;52.190;4.440;2022-10-16T04:33:42;101080.03;;;13.32;100.00
69318;BME280;56457;52.190;4.440;2022-10-16T04:34:42;101080.97;;;13.28;100.00
69318;BME280;56457;52.190;4.440;2022-10-16T04:35:43;101093.28;;;13.29;100.00
69318;BME280;56457;52.190;4.440;2022-10-16T04:36:43;101088.88;;;13.28;100.00
69318;BME280;56457;52.190;4.440;2022-10-16T04:37:43;101099.44;;;13.27;100.00
69318;BME280;56457;52.190;4.440;2022-10-16T04:38:44;101095.97;;;13.25;100.00
69318;BME280;56457;52.190;4.440;2022-10-16T04:39:44;101106.53;;;13.23;100.00
69318;BME280;56457;52.190;4.440;2022-10-16T04:40:45;101114.41;;;13.25;100.00
69318;BME280;56457;52.190;4.440;2022-10-16T04:41:45;101113.53;;;13.24;100.00
69318;BME280;56457;52.190;4.440;2022-10-16T04:42:45;101113.53;;;13.24;100.00
69318;BME280;56457;52.190;4.440;2022-10-16T04:43:46;101117.06;;;13.23;100.00
69318;BME280;56457;52.190;4.440;2022-10-16T04:44:46;101115.34;;;13.20;100.00
69318;BME280;56457;52.190;4.440;2022-10-16T04:45:47;101111.81;;;13.20;100.00
69318;BME280;56457;52.190;4.440;2022-10-16T04:46:49;101122.38;;;13.18;100.00
69318;BME280;56457;52.190;4.440;2022-10-16T04:47:50;101123.25;;;13.16;100.00
69318;BME280;56457;52.190;4.440;2022-10-16T04:48:50;101123.25;;;13.16;100.00
69318;BME280;56457;52.190;4.440;2022-10-16T04:49:50;101122.41;;;13.17;100.00
69318;BME280;56457;52.190;4.440;2022-10-16T04:50:51;101126.84;;;13.12;100.00
69318;BME280;56457;52.190;4.440;2022-10-16T04:51:51;101132.13;;;13.12;100.00
69318;BME280;56457;52.190;4.440;2022-10-16T04:52:52;101129.47;;;13.13;100.00
69318;BME280;56457;52.190;4.440;2022-10-16T04:53:52;101130.31;;;13.17;100.00
69318;BME280;56457;52.190;4.440;2022-10-16T04:54:52;101134.72;;;13.13;100.00
69318;BME280;56457;52.190;4.440;2022-10-16T04:55:54;101141.78;;;13.11;100.00
69318;BME280;56457;52.190;4.440;2022-10-16T04:56:54;101133.00;;;13.12;100.00
69318;BME280;56457;52.190;4.440;2022-10-16T04:57:54;101133.84;;;13.13;100.00
69318;BME280;56457;52.190;4.440;2022-10-16T04:58:55;101129.50;;;13.12;100.00
69318;BME280;56457;52.190;4.440;2022-10-16T04:59:55;101140.91;;;13.11;100.00
69318;BME280;56457;52.190;4.440;2022-10-16T05:00:56;101134.81;;;13.07;100.00
69318;BME280;56457;52.190;4.440;2022-10-16T05:01:56;101138.34;;;13.06;100.00
69318;BME280;56457;52.190;4.440;2022-10-16T05:02:57;101141.03;;;13.02;100.00
69318;BME280;56457;52.190;4.440;2022-10-16T05:03:58;101141.00;;;13.05;100.00
69318;BME280;56457;52.190;4.440;2022-10-16T05:04:58;101144.50;;;13.04;100.00
69318;BME280;56457;52.190;4.440;2022-10-16T05:05:59;101151.53;;;13.03;100.00
69318;BME280;56457;52.190;4.440;2022-10-16T05:06:59;101151.47;;;13.11;100.00
69318;BME280;56457;52.190;4.440;2022-10-16T05:07:59;101139.22;;;13.07;100.00
69318;BME280;56457;52.190;4.440;2022-10-16T05:09:00;101153.22;;;13.09;100.00
69318;BME280;56457;52.190;4.440;2022-10-16T05:10:00;101149.75;;;13.07;100.00
69318;BME280;56457;52.190;4.440;2022-10-16T05:11:01;101141.91;;;13.02;100.00
69318;BME280;56457;52.190;4.440;2022-10-16T05:12:02;101155.03;;;13.05;100.00
69318;BME280;56457;52.190;4.440;2022-10-16T05:13:03;101154.19;;;13.02;100.00
69318;BME280;56457;52.190;4.440;2022-10-16T05:14:03;101167.38;;;13.02;100.00
69318;BME280;56457;52.190;4.440;2022-10-16T05:15:04;101165.59;;;13.02;100.00
69318;BME280;56457;52.190;4.440;2022-10-16T05:16:05;101166.50;;;13.01;100.00
69318;BME280;56457;52.190;4.440;2022-10-16T05:17:05;101165.63;;;13.01;100.00
69318;BME280;56457;52.190;4.440;2022-10-16T05:18:06;101169.16;;;13.00;100.00
69318;BME280;56457;52.190;4.440;2022-10-16T05:19:06;101164.78;;;12.99;100.00
69318;BME280;56457;52.190;4.440;2022-10-16T05:20:07;101172.69;;;12.99;100.00
69318;BME280;56457;52.190;4.440;2022-10-16T05:21:07;101169.13;;;13.01;100.00
69318;BME280;56457;52.190;4.440;2022-10-16T05:22:07;101172.69;;;12.97;100.00
69318;BME280;56457;52.190;4.440;2022-10-16T05:23:08;101174.41;;;13.00;100.00
69318;BME280;56457;52.190;4.440;2022-10-16T05:24:10;101177.09;;;12.98;100.00
69318;BME280;56457;52.190;4.440;2022-10-16T05:25:10;101173.56;;;12.96;100.00
69318;BME280;56457;52.190;4.440;2022-10-16T05:26:11;101166.53;;;12.98;100.00
69318;BME280;56457;52.190;4.440;2022-10-16T05:27:11;101164.78;;;12.97;100.00
69318;BME280;56457;52.190;4.440;2022-10-16T05:28:18;101172.69;;;12.97;100.00
69318;BME280;56457;52.190;4.440;2022-10-16T05:29:19;101170.03;;;12.97;100.00
69318;BME280;56457;52.190;4.440;2022-10-16T05:30:19;101176.22;;;12.94;100.00
69318;BME280;56457;52.190;4.440;2022-10-16T05:31:20;101181.47;;;12.96;100.00